createdAt,value
2019-02-05T00:01:39.763Z,4.30
2019-02-05T00:04:20.255Z,4.20
2019-02-05T00:07:00.771Z,4.10
2019-02-05T00:09:41.258Z,4.00
2019-02-05T00:12:21.859Z,3.90
2019-02-05T00:15:02.351Z,4.00
2019-02-05T00:17:43.109Z,3.90
2019-02-05T00:20:23.586Z,3.90
2019-02-05T00:23:04.311Z,3.90
2019-02-05T00:25:44.896Z,3.90
2019-02-05T00:28:25.914Z,3.90
2019-02-05T00:31:06.832Z,4.00
2019-02-05T00:33:47.166Z,4.00
2019-02-05T00:36:27.710Z,4.00
2019-02-05T00:39:08.247Z,4.00
2019-02-05T00:41:48.870Z,4.00
2019-02-05T00:44:29.655Z,4.00
2019-02-05T00:47:10.113Z,4.00
2019-02-05T00:49:50.640Z,4.00
2019-02-05T00:52:31.298Z,4.00
2019-02-05T00:55:11.858Z,4.10
2019-02-05T00:57:52.995Z,4.10
2019-02-05T01:00:33.666Z,4.10
2019-02-05T01:03:14.500Z,4.10
2019-02-05T01:05:54.950Z,4.10
2019-02-05T01:08:35.924Z,4.20
2019-02-05T01:11:16.330Z,4.20
2019-02-05T01:13:57.058Z,4.30
2019-02-05T01:16:37.802Z,4.40
2019-02-05T01:19:18.483Z,4.40
2019-02-05T01:21:59.476Z,4.40
2019-02-05T01:24:40.358Z,4.30
2019-02-05T01:27:20.790Z,4.20
2019-02-05T01:30:01.885Z,4.30
2019-02-05T01:32:42.271Z,4.30
2019-02-05T01:35:22.800Z,4.40
2019-02-05T01:38:03.486Z,4.30
2019-02-05T01:40:44.357Z,4.30
2019-02-05T01:43:25.024Z,4.20
2019-02-05T01:46:05.434Z,4.10
2019-02-05T01:48:46.279Z,4.10
2019-02-05T01:51:26.734Z,4.10
2019-02-05T01:54:07.479Z,4.00
2019-02-05T01:56:48.056Z,4.00
2019-02-05T01:59:28.561Z,4.00
2019-02-05T02:02:09.173Z,4.00
2019-02-05T02:04:50.137Z,4.00
2019-02-05T02:07:30.683Z,3.90
2019-02-05T02:10:11.394Z,4.00
2019-02-05T02:12:52.030Z,3.90
2019-02-05T02:15:33.130Z,4.00
2019-02-05T02:18:14.322Z,4.00
2019-02-05T02:20:55.007Z,3.90
2019-02-05T02:23:36.149Z,3.90
2019-02-05T02:26:16.638Z,3.90
2019-02-05T02:28:57.050Z,3.90
2019-02-05T02:31:38.228Z,4.00
2019-02-05T02:34:18.720Z,4.00
2019-02-05T02:36:59.015Z,3.90
2019-02-05T02:39:39.487Z,3.90
2019-02-05T02:42:20.186Z,4.00
2019-02-05T02:45:01.563Z,4.00
2019-02-05T02:47:42.143Z,3.90
2019-02-05T02:50:22.741Z,3.90
2019-02-05T02:53:03.332Z,4.00
2019-02-05T02:55:44.469Z,4.00
2019-02-05T02:58:25.151Z,4.10
2019-02-05T03:01:06.888Z,4.00
2019-02-05T03:03:47.396Z,4.00
2019-02-05T03:06:28.182Z,4.00
2019-02-05T03:09:10.819Z,4.10
2019-02-05T03:11:51.478Z,4.10
2019-02-05T03:14:32.735Z,4.10
2019-02-05T03:17:13.513Z,4.20
2019-02-05T03:19:54.343Z,4.20
2019-02-05T03:22:34.688Z,4.30
2019-02-05T03:25:15.249Z,4.30
2019-02-05T03:27:55.837Z,4.40
2019-02-05T03:30:36.437Z,4.50
2019-02-05T03:33:17.164Z,4.60
2019-02-05T03:35:57.603Z,4.50
2019-02-05T03:38:38.528Z,4.60
2019-02-05T03:41:18.979Z,4.60
2019-02-05T03:43:59.550Z,4.60
2019-02-05T03:46:40.821Z,4.70
2019-02-05T03:49:21.599Z,4.80
2019-02-05T03:52:02.252Z,4.80
2019-02-05T03:54:42.930Z,4.80
2019-02-05T03:57:30.961Z,4.90
2019-02-05T04:00:06.033Z,4.90
2019-02-05T04:02:47.195Z,4.80
2019-02-05T04:05:27.814Z,4.70
2019-02-05T04:08:08.758Z,4.60
2019-02-05T04:10:50.010Z,4.50
2019-02-05T04:13:30.671Z,4.50
2019-02-05T04:16:11.314Z,4.50
2019-02-05T04:18:52.073Z,4.50
2019-02-05T04:21:32.767Z,4.50
2019-02-05T04:24:13.320Z,4.50
2019-02-05T04:26:54.180Z,4.50
2019-02-05T04:29:34.852Z,4.60
2019-02-05T04:32:15.683Z,4.60
2019-02-05T04:34:56.284Z,4.50
2019-02-05T04:37:36.868Z,4.50
2019-02-05T04:40:17.767Z,4.50
2019-02-05T04:42:58.469Z,4.30
2019-02-05T04:49:27.303Z,4.20
2019-02-05T04:52:34.520Z,4.10
2019-02-05T04:55:41.961Z,4.10
2019-02-05T05:02:21.438Z,4.10
2019-02-05T05:05:28.642Z,4.10
2019-02-05T05:08:35.847Z,4.10
2019-02-05T05:11:23.841Z,4.10
2019-02-05T05:14:04.852Z,4.00
2019-02-05T05:16:45.428Z,4.00
2019-02-05T05:19:25.806Z,3.90
2019-02-05T05:22:06.235Z,3.80
2019-02-05T05:24:46.901Z,3.80
2019-02-05T05:27:27.424Z,3.80
2019-02-05T05:30:07.993Z,3.70
2019-02-05T05:32:50.193Z,3.70
2019-02-05T05:35:41.667Z,3.70
2019-02-05T05:38:13.855Z,3.70
2019-02-05T05:40:54.467Z,3.70
2019-02-05T05:43:35.836Z,3.70
2019-02-05T05:46:17.246Z,3.60
2019-02-05T05:48:58.299Z,3.60
2019-02-05T05:51:39.035Z,3.60
2019-02-05T05:54:19.465Z,3.60
2019-02-05T05:57:00.283Z,3.60
2019-02-05T05:59:41.313Z,3.60
2019-02-05T06:02:22.590Z,3.60
2019-02-05T06:05:04.172Z,3.60
2019-02-05T06:07:45.203Z,3.60
2019-02-05T06:10:25.749Z,3.70
2019-02-05T06:13:06.582Z,3.80
2019-02-05T06:15:47.249Z,3.90
2019-02-05T06:18:28.878Z,4.00
2019-02-05T06:21:09.294Z,3.70
2019-02-05T06:23:49.731Z,3.70
2019-02-05T06:26:31.103Z,3.70
2019-02-05T06:29:11.724Z,3.70
2019-02-05T06:31:52.291Z,3.80
2019-02-05T06:34:33.774Z,3.80
2019-02-05T06:37:14.600Z,3.80
2019-02-05T06:39:55.748Z,3.90
2019-02-05T06:42:36.190Z,3.90
2019-02-05T06:45:16.836Z,3.80
2019-02-05T06:47:58.100Z,3.90
2019-02-05T06:50:38.724Z,3.90
2019-02-05T06:53:19.434Z,3.90
2019-02-05T06:56:00.010Z,3.90
2019-02-05T06:58:46.381Z,3.90
2019-02-05T07:01:23.659Z,4.00
2019-02-05T07:04:04.338Z,4.00
2019-02-05T07:06:45.008Z,3.80
2019-02-05T07:09:25.613Z,3.80
2019-02-05T07:12:06.097Z,3.80
2019-02-05T07:14:46.492Z,3.90
2019-02-05T07:17:27.123Z,3.90
2019-02-05T07:20:07.934Z,4.00
2019-02-05T07:22:48.708Z,4.10
2019-02-05T07:25:29.774Z,4.10
2019-02-05T07:28:10.658Z,4.00
2019-02-05T07:30:51.169Z,4.00
2019-02-05T07:33:31.778Z,4.00
2019-02-05T07:36:12.270Z,4.10
2019-02-05T07:38:52.950Z,4.00
2019-02-05T07:41:33.398Z,4.00
2019-02-05T07:44:14.175Z,4.10
2019-02-05T07:46:55.022Z,4.10
2019-02-05T07:49:35.835Z,4.10
2019-02-05T07:52:16.703Z,4.00
2019-02-05T07:54:57.831Z,4.00
2019-02-05T07:57:38.807Z,4.00
2019-02-05T08:00:19.453Z,4.00
2019-02-05T08:03:00.529Z,4.10
2019-02-05T08:05:40.998Z,4.10
2019-02-05T08:08:22.381Z,4.20
2019-02-05T08:11:03.040Z,4.00
2019-02-05T08:13:43.504Z,4.00
2019-02-05T08:16:23.966Z,4.10
2019-02-05T08:19:04.628Z,4.00
2019-02-05T08:21:45.219Z,4.00
2019-02-05T08:24:25.651Z,4.10
2019-02-05T08:27:06.338Z,4.10
2019-02-05T08:29:47.241Z,4.10
2019-02-05T08:32:27.976Z,4.00
2019-02-05T08:35:09.468Z,4.00
2019-02-05T08:37:50.189Z,4.20
2019-02-05T08:40:30.837Z,4.20
2019-02-05T08:43:11.792Z,4.30
2019-02-05T08:45:56.793Z,4.30
2019-02-05T08:48:35.138Z,4.30
2019-02-05T08:51:15.926Z,4.40
2019-02-05T08:53:56.682Z,4.60
2019-02-05T08:56:37.514Z,4.90
2019-02-05T08:59:18.252Z,5.10
2019-02-05T09:01:59.030Z,4.90
2019-02-05T09:04:39.969Z,5.10
2019-02-05T09:07:21.244Z,5.10
2019-02-05T09:10:02.092Z,5.10
2019-02-05T09:12:42.691Z,5.20
2019-02-05T09:15:29.403Z,5.20
2019-02-05T09:18:06.149Z,5.00
2019-02-05T09:20:46.697Z,5.00
2019-02-05T09:23:27.292Z,5.10
2019-02-05T09:26:08.240Z,5.00
2019-02-05T09:28:49.005Z,5.00
2019-02-05T09:31:30.425Z,5.00
2019-02-05T09:34:11.234Z,5.10
2019-02-05T09:36:51.887Z,5.20
2019-02-05T09:39:32.502Z,5.30
2019-02-05T09:42:13.388Z,5.20
2019-02-05T09:44:54.118Z,4.90
2019-02-05T09:47:34.716Z,4.80
2019-02-05T09:50:16.089Z,4.70
2019-02-05T09:52:56.810Z,4.70
2019-02-05T09:55:37.247Z,4.80
2019-02-05T09:58:18.016Z,4.70
2019-02-05T10:00:59.793Z,4.70
2019-02-05T10:03:40.259Z,4.70
2019-02-05T10:06:21.076Z,4.60
2019-02-05T10:09:01.546Z,4.70
2019-02-05T10:11:42.118Z,4.80
2019-02-05T10:14:22.763Z,4.90
2019-02-05T10:17:03.674Z,5.00
2019-02-05T10:19:44.380Z,5.00
2019-02-05T10:22:24.939Z,4.80
2019-02-05T10:25:05.459Z,4.80
2019-02-05T10:27:45.974Z,4.80
2019-02-05T10:30:26.699Z,4.90
2019-02-05T10:33:07.323Z,4.70
2019-02-05T10:35:48.031Z,4.50
2019-02-05T10:38:28.824Z,4.60
2019-02-05T10:41:09.658Z,4.70
2019-02-05T10:43:50.271Z,4.90
2019-02-05T10:46:30.926Z,4.90
2019-02-05T10:49:11.719Z,4.90
2019-02-05T10:51:52.312Z,4.90
2019-02-05T10:54:35.343Z,5.00
2019-02-05T10:57:15.531Z,5.10
2019-02-05T11:00:07.282Z,5.10
2019-02-05T11:02:39.193Z,5.30
2019-02-05T11:05:20.184Z,5.20
2019-02-05T11:08:00.854Z,5.20
2019-02-05T11:10:41.294Z,5.10
2019-02-05T11:13:22.185Z,5.00
2019-02-05T11:16:03.486Z,5.00
2019-02-05T11:18:47.419Z,5.30
2019-02-05T11:21:28.379Z,5.50
2019-02-05T11:24:09.314Z,5.40
2019-02-05T11:26:50.043Z,5.40
2019-02-05T11:29:30.605Z,5.60
2019-02-05T11:32:11.531Z,5.80
2019-02-05T11:34:52.363Z,5.90
2019-02-05T11:37:32.840Z,6.20
2019-02-05T11:40:13.366Z,6.30
2019-02-05T11:42:54.012Z,6.50
2019-02-05T11:45:35.188Z,6.30
2019-02-05T11:48:15.814Z,6.30
2019-02-05T11:50:56.430Z,6.30
2019-02-05T11:53:37.174Z,6.00
2019-02-05T11:56:17.760Z,5.80
2019-02-05T11:58:58.912Z,5.80
2019-02-05T12:01:39.674Z,5.90
2019-02-05T12:04:20.154Z,5.70
2019-02-05T12:07:01.797Z,5.90
2019-02-05T12:09:42.306Z,6.00
2019-02-05T12:12:22.889Z,6.00
2019-02-05T12:15:03.727Z,6.10
2019-02-05T12:17:44.451Z,6.30
2019-02-05T12:20:24.953Z,6.30
2019-02-05T12:23:05.501Z,6.30
2019-02-05T12:25:46.546Z,6.30
2019-02-05T12:28:26.875Z,6.40
2019-02-05T12:31:07.674Z,6.40
2019-02-05T12:33:48.481Z,6.20
2019-02-05T12:36:29.120Z,6.30
2019-02-05T12:39:09.931Z,6.20
2019-02-05T12:41:50.501Z,6.20
2019-02-05T12:44:31.283Z,6.30
2019-02-05T12:47:12.273Z,6.30
2019-02-05T12:49:53.002Z,6.20
2019-02-05T12:52:33.693Z,6.20
2019-02-05T12:55:16.286Z,6.20
2019-02-05T12:57:57.270Z,6.20
2019-02-05T13:00:37.923Z,6.20
2019-02-05T13:03:19.039Z,6.20
2019-02-05T13:06:00.267Z,6.10
2019-02-05T13:08:41.746Z,6.10
2019-02-05T13:11:22.227Z,6.10
2019-02-05T13:14:02.789Z,6.10
2019-02-05T13:16:43.627Z,6.00
2019-02-05T13:19:24.206Z,6.10
2019-02-05T13:22:04.632Z,6.10
2019-02-05T13:24:45.435Z,6.20
2019-02-05T13:27:25.953Z,6.20
2019-02-05T13:30:06.786Z,6.30
2019-02-05T13:32:47.502Z,6.30
2019-02-05T13:35:28.154Z,6.50
2019-02-05T13:38:08.989Z,6.50
2019-02-05T13:40:49.899Z,6.60
2019-02-05T13:43:30.626Z,6.60
2019-02-05T13:46:11.331Z,6.40
2019-02-05T13:48:51.858Z,6.20
2019-02-05T13:51:32.430Z,5.90
2019-02-05T13:54:13.235Z,5.90
2019-02-05T13:56:54.247Z,6.00
2019-02-05T13:59:34.811Z,6.10
2019-02-05T14:02:15.286Z,6.20
2019-02-05T14:04:55.982Z,6.20
2019-02-05T14:07:36.591Z,6.30
2019-02-05T14:10:17.211Z,6.00
2019-02-05T14:12:57.815Z,6.00
2019-02-05T14:15:38.411Z,6.00
2019-02-05T14:18:21.953Z,5.80
2019-02-05T14:21:02.047Z,5.70
2019-02-05T14:23:42.783Z,5.70
2019-02-05T14:26:23.467Z,5.90
2019-02-05T14:29:04.362Z,5.70
2019-02-05T14:31:44.963Z,5.70
2019-02-05T14:34:25.883Z,5.90
2019-02-05T14:37:06.703Z,6.00
2019-02-05T14:39:48.998Z,5.80
2019-02-05T14:42:29.935Z,5.90
2019-02-05T14:45:10.358Z,5.80
2019-02-05T14:47:51.419Z,5.90
2019-02-05T14:50:32.422Z,6.00
2019-02-05T14:53:13.019Z,6.00
2019-02-05T14:55:53.801Z,5.90
2019-02-05T14:58:34.784Z,5.90
2019-02-05T15:01:15.478Z,5.90
2019-02-05T15:03:56.355Z,5.70
2019-02-05T15:06:36.997Z,5.70
2019-02-05T15:09:17.918Z,5.90
2019-02-05T15:11:59.163Z,5.80
2019-02-05T15:14:39.868Z,5.90
2019-02-05T15:17:20.831Z,6.10
2019-02-05T15:20:01.411Z,5.80
2019-02-05T15:22:41.874Z,5.90
2019-02-05T15:25:22.834Z,5.90
2019-02-05T15:28:03.463Z,5.80
2019-02-05T15:30:44.218Z,5.80
2019-02-05T15:33:44.063Z,5.90
2019-02-05T15:36:31.465Z,5.80
2019-02-05T15:39:12.507Z,6.00
2019-02-05T15:41:53.237Z,6.00
2019-02-05T15:44:34.340Z,6.00
2019-02-05T15:47:14.936Z,5.80
2019-02-05T15:50:05.666Z,5.80
2019-02-05T15:52:37.851Z,6.00
2019-02-05T15:55:20.962Z,6.00
2019-02-05T15:58:01.512Z,6.00
2019-02-05T16:00:42.132Z,6.00
2019-02-05T16:03:22.708Z,6.00
2019-02-05T16:06:03.019Z,5.90
2019-02-05T16:08:43.591Z,5.90
2019-02-05T16:11:24.635Z,6.00
2019-02-05T16:14:05.225Z,5.90
2019-02-05T16:16:45.887Z,6.00
2019-02-05T16:19:26.447Z,6.00
2019-02-05T16:25:03.034Z,5.90
2019-02-05T16:27:43.739Z,5.80
2019-02-05T16:30:25.387Z,5.80
2019-02-05T16:33:06.230Z,5.80
2019-02-05T16:35:47.126Z,5.90
2019-02-05T16:38:28.571Z,5.90
2019-02-05T16:41:09.744Z,5.90
2019-02-05T16:43:50.295Z,5.90
2019-02-05T16:46:31.774Z,5.80
2019-02-05T16:49:12.451Z,5.80
2019-02-05T16:51:53.171Z,5.80
2019-02-05T16:54:34.167Z,5.80
2019-02-05T16:57:15.294Z,5.80
2019-02-05T16:59:55.931Z,5.80
2019-02-05T17:02:37.429Z,5.80
2019-02-05T17:05:17.994Z,5.80
2019-02-05T17:07:59.050Z,5.70
2019-02-05T17:10:38.661Z,5.70
2019-02-05T17:13:26.928Z,5.70
2019-02-05T17:16:14.971Z,5.80
2019-02-05T17:19:03.457Z,5.70
2019-02-05T17:21:53.105Z,5.70
2019-02-05T17:24:41.410Z,5.50
2019-02-05T17:27:29.398Z,5.60
2019-02-05T17:30:20.762Z,5.50
2019-02-05T17:33:08.823Z,5.60
2019-02-05T17:35:57.162Z,5.50
2019-02-05T17:38:45.384Z,5.50
2019-02-05T17:41:33.364Z,5.60
2019-02-05T17:44:21.582Z,5.70
2019-02-05T17:47:09.832Z,5.60
2019-02-05T17:49:58.107Z,5.50
2019-02-05T17:52:46.167Z,5.40
2019-02-05T17:55:36.204Z,5.60
2019-02-05T17:58:24.182Z,5.60
2019-02-05T18:04:08.430Z,5.80
2019-02-05T18:06:56.768Z,5.90
2019-02-05T18:10:03.966Z,5.70
2019-02-05T18:12:52.345Z,5.70
2019-02-05T18:15:32.981Z,5.50
2019-02-05T18:18:13.611Z,5.50
2019-02-05T18:20:54.444Z,5.60
2019-02-05T18:23:35.039Z,5.60
2019-02-05T18:26:15.568Z,5.60
2019-02-05T18:28:56.131Z,5.60
2019-02-05T18:31:36.982Z,5.50
2019-02-05T18:34:17.413Z,5.50
2019-02-05T18:36:57.960Z,5.50
2019-02-05T18:39:40.000Z,5.50
2019-02-05T18:42:20.927Z,5.40
2019-02-05T18:45:01.669Z,5.40
2019-02-05T18:47:42.302Z,5.60
2019-02-05T18:50:23.175Z,5.70
2019-02-05T18:53:03.710Z,5.80
2019-02-05T18:55:44.176Z,5.90
2019-02-05T18:58:26.933Z,5.90
2019-02-05T19:01:07.473Z,5.90
2019-02-05T19:03:48.925Z,6.00
2019-02-05T19:06:30.101Z,6.00
2019-02-05T19:09:10.443Z,6.00
2019-02-05T19:11:50.759Z,6.10
2019-02-05T19:14:31.590Z,6.10
2019-02-05T19:17:12.524Z,6.10
2019-02-05T19:19:53.353Z,6.10
2019-02-05T19:22:33.781Z,6.10
2019-02-05T19:34:25.229Z,6.10
2019-02-05T19:37:05.961Z,6.00
2019-02-05T19:39:47.146Z,6.00
2019-02-05T19:42:27.962Z,6.00
2019-02-05T19:45:28.247Z,6.00
2019-02-05T19:48:14.311Z,6.00
2019-02-05T19:50:54.846Z,6.00
2019-02-05T19:53:35.654Z,6.00
2019-02-05T19:56:16.413Z,6.00
2019-02-05T19:58:56.743Z,5.90
2019-02-05T20:01:37.378Z,5.90
2019-02-05T20:04:18.175Z,6.00
2019-02-05T20:06:58.958Z,6.00
2019-02-05T20:09:39.821Z,5.90
2019-02-05T20:12:21.183Z,5.90
2019-02-05T20:15:02.778Z,5.70
2019-02-05T20:17:44.110Z,5.60
2019-02-05T20:20:25.043Z,5.40
2019-02-05T20:23:06.143Z,5.40
2019-02-05T20:25:46.933Z,5.40
2019-02-05T20:28:28.025Z,5.60
2019-02-05T20:31:08.926Z,5.50
2019-02-05T20:33:50.302Z,5.40
2019-02-05T20:36:31.145Z,5.30
2019-02-05T20:39:11.928Z,5.20
2019-02-05T20:41:53.102Z,5.10
2019-02-05T20:44:34.193Z,4.90
2019-02-05T20:47:15.809Z,4.90
2019-02-05T20:49:56.806Z,4.80
2019-02-05T20:52:37.510Z,4.90
2019-02-05T20:55:18.390Z,4.90
2019-02-05T20:57:58.960Z,5.00
2019-02-05T21:00:39.922Z,5.10
2019-02-05T21:03:21.295Z,5.30
2019-02-05T21:06:01.733Z,5.20
2019-02-05T21:08:42.791Z,5.40
2019-02-05T21:11:23.347Z,5.40
2019-02-05T21:14:04.302Z,5.50
2019-02-05T21:16:45.499Z,5.60
2019-02-05T21:19:26.039Z,5.60
2019-02-05T21:22:08.911Z,5.70
2019-02-05T21:24:49.534Z,5.40
2019-02-05T21:27:30.241Z,5.40
2019-02-05T21:30:10.998Z,5.50
2019-02-05T21:32:51.780Z,5.40
2019-02-05T21:35:33.155Z,5.40
2019-02-05T21:38:14.493Z,5.40
2019-02-05T21:40:55.210Z,5.50
2019-02-05T21:43:35.865Z,5.50
2019-02-05T21:49:05.761Z,5.60
2019-02-05T21:51:46.071Z,5.60
2019-02-05T21:54:26.659Z,5.60
2019-02-05T21:57:07.622Z,5.60
2019-02-05T21:59:48.082Z,5.60
2019-02-05T22:02:28.693Z,5.70
2019-02-05T22:05:09.543Z,5.70
2019-02-05T22:07:49.944Z,5.70
2019-02-05T22:10:31.610Z,5.70
2019-02-05T22:13:12.334Z,5.70
2019-02-05T22:15:52.978Z,5.60
2019-02-05T22:18:33.580Z,5.60
2019-02-05T22:21:14.542Z,5.60
2019-02-05T22:23:55.773Z,5.60
2019-02-05T22:26:36.469Z,5.50
2019-02-05T22:29:17.238Z,5.40
2019-02-05T22:31:58.196Z,5.40
2019-02-05T22:34:39.636Z,5.50
2019-02-05T22:37:21.069Z,5.50
2019-02-05T22:40:01.679Z,5.40
2019-02-05T22:42:42.260Z,5.30
2019-02-05T22:45:22.945Z,5.30
2019-02-05T22:48:03.840Z,5.40
2019-02-05T22:50:44.666Z,5.40
2019-02-05T22:53:25.358Z,5.40
2019-02-05T22:56:05.954Z,5.40
2019-02-05T22:58:46.967Z,5.30
2019-02-05T23:01:27.423Z,5.20
2019-02-05T23:04:08.653Z,5.10
2019-02-05T23:06:49.974Z,5.20
2019-02-05T23:09:30.525Z,5.20
2019-02-05T23:12:11.209Z,5.20
2019-02-05T23:14:51.851Z,5.00
2019-02-05T23:17:32.570Z,5.00
2019-02-05T23:20:13.878Z,4.90
2019-02-05T23:22:56.980Z,4.80
2019-02-05T23:25:37.267Z,4.80
2019-02-05T23:28:17.810Z,4.80
2019-02-05T23:30:58.435Z,4.40
2019-02-05T23:33:39.463Z,4.40
2019-02-05T23:36:20.334Z,4.30
2019-02-05T23:39:01.109Z,4.20
2019-02-05T23:41:41.907Z,4.20
2019-02-05T23:44:22.628Z,4.00
2019-02-05T23:47:03.234Z,3.90
2019-02-05T23:49:44.454Z,3.70
2019-02-05T23:52:25.550Z,3.50
2019-02-05T23:55:05.957Z,3.30
2019-02-05T23:57:46.421Z,3.30
